createdAt,value
2018-04-01T00:00:42.054Z,7.80
2018-04-01T00:03:09.135Z,8.33
2018-04-01T00:05:36.181Z,8.30
2018-04-01T00:08:03.241Z,8.17
2018-04-01T00:10:30.375Z,7.83
2018-04-01T00:12:57.429Z,7.87
2018-04-01T00:15:24.576Z,7.47
2018-04-01T00:17:51.624Z,8.37
2018-04-01T00:20:18.667Z,9.00
2018-04-01T00:22:45.724Z,8.77
2018-04-01T00:25:12.780Z,10.03
2018-04-01T00:27:39.862Z,8.90
2018-04-01T00:30:06.922Z,8.83
2018-04-01T00:32:37.978Z,8.93
2018-04-01T00:35:05.075Z,9.67
2018-04-01T00:37:32.122Z,8.57
2018-04-01T00:39:59.206Z,8.40
2018-04-01T00:42:26.327Z,9.30
2018-04-01T00:44:53.374Z,9.00
2018-04-01T00:47:20.422Z,8.70
2018-04-01T00:49:47.511Z,9.67
2018-04-01T00:52:14.558Z,9.13
2018-04-01T00:54:41.603Z,9.10
2018-04-01T00:57:08.655Z,9.70
2018-04-01T00:59:35.703Z,9.30
2018-04-01T01:02:02.800Z,8.50
2018-04-01T01:04:29.854Z,9.63
2018-04-01T01:06:56.934Z,8.87
2018-04-01T01:09:24.026Z,8.47
2018-04-01T01:11:51.074Z,8.30
2018-04-01T01:14:18.147Z,8.10
2018-04-01T01:16:45.230Z,8.53
2018-04-01T01:19:12.275Z,8.27
2018-04-01T01:21:39.326Z,7.53
2018-04-01T01:24:06.423Z,7.93
2018-04-01T01:26:33.462Z,8.03
2018-04-01T01:29:00.542Z,7.40
2018-04-01T01:31:27.654Z,6.77
2018-04-01T01:33:54.698Z,8.07
2018-04-01T01:36:21.746Z,8.53
2018-04-01T01:38:48.827Z,9.23
2018-04-01T01:41:15.894Z,8.87
2018-04-01T01:43:42.970Z,9.07
2018-04-01T01:46:10.023Z,9.57
2018-04-01T01:48:37.068Z,9.27
2018-04-01T01:51:04.175Z,11.47
2018-04-01T01:53:31.218Z,9.67
2018-04-01T01:55:58.367Z,9.37
2018-04-01T01:58:25.490Z,9.27
2018-04-01T02:00:52.586Z,9.00
2018-04-01T02:03:19.654Z,7.97
2018-04-01T02:05:46.738Z,8.70
2018-04-01T02:08:13.794Z,9.07
2018-04-01T02:10:40.838Z,9.63
2018-04-01T02:13:07.978Z,8.60
2018-04-01T02:15:35.027Z,8.47
2018-04-01T02:18:02.121Z,10.47
2018-04-01T02:20:29.231Z,8.67
2018-04-01T02:22:56.324Z,9.87
2018-04-01T02:25:23.394Z,9.57
2018-04-01T02:27:50.482Z,8.60
2018-04-01T02:30:17.527Z,9.70
2018-04-01T02:32:46.486Z,10.10
2018-04-01T02:35:13.608Z,10.60
2018-04-01T02:37:40.698Z,11.13
2018-04-01T02:40:07.760Z,10.40
2018-04-01T02:42:34.890Z,11.23
2018-04-01T02:45:01.968Z,10.50
2018-04-01T02:47:29.059Z,11.13
2018-04-01T02:49:56.210Z,10.87
2018-04-01T02:52:23.271Z,11.27
2018-04-01T02:54:50.356Z,11.13
2018-04-01T02:57:17.428Z,10.43
2018-04-01T02:59:44.477Z,10.57
2018-04-01T03:02:11.572Z,11.30
2018-04-01T03:04:38.709Z,12.17
2018-04-01T03:07:05.707Z,10.43
2018-04-01T03:09:32.844Z,10.70
2018-04-01T03:11:59.903Z,10.30
2018-04-01T03:14:26.954Z,9.83
2018-04-01T03:16:54.032Z,10.20
2018-04-01T03:19:21.080Z,10.67
2018-04-01T03:21:48.131Z,11.17
2018-04-01T03:24:15.295Z,10.57
2018-04-01T03:26:42.351Z,10.50
2018-04-01T03:29:09.398Z,10.00
2018-04-01T03:31:36.464Z,10.53
2018-04-01T03:34:03.572Z,10.30
2018-04-01T03:36:30.727Z,10.87
2018-04-01T03:38:57.770Z,9.77
2018-04-01T03:41:24.826Z,10.37
2018-04-01T03:43:52.554Z,10.30
2018-04-01T03:46:19.603Z,10.73
2018-04-01T03:48:46.660Z,10.27
2018-04-01T03:51:13.787Z,21.67
2018-04-01T03:53:40.851Z,17.40
2018-04-01T03:56:07.901Z,17.53
2018-04-01T03:58:34.958Z,16.00
2018-04-01T04:01:02.011Z,14.17
2018-04-01T04:03:29.103Z,12.17
2018-04-01T04:05:56.255Z,12.20
2018-04-01T04:08:23.327Z,11.50
2018-04-01T04:10:50.386Z,12.77
2018-04-01T04:13:17.486Z,12.93
2018-04-01T04:15:44.539Z,12.27
2018-04-01T04:18:11.591Z,13.63
2018-04-01T04:20:38.750Z,12.73
2018-04-01T04:23:05.810Z,12.67
2018-04-01T04:25:32.862Z,13.63
2018-04-01T04:27:59.955Z,15.30
2018-04-01T04:30:27.057Z,13.87
2018-04-01T04:38:39.443Z,17.43
2018-04-01T04:41:06.490Z,18.30
2018-04-01T04:43:33.538Z,17.27
2018-04-01T04:46:00.666Z,17.03
2018-04-01T04:48:27.707Z,15.97
2018-04-01T04:50:54.758Z,15.03
2018-04-01T04:53:21.827Z,14.50
2018-04-01T04:55:48.916Z,15.00
2018-04-01T04:58:16.085Z,15.87
2018-04-01T05:00:43.143Z,15.23
2018-04-01T05:03:10.206Z,16.60
2018-04-01T05:05:37.363Z,14.20
2018-04-01T05:08:04.412Z,13.20
2018-04-01T05:10:31.461Z,12.33
2018-04-01T05:12:58.559Z,15.73
2018-04-01T05:15:25.607Z,16.10
2018-04-01T05:17:52.663Z,15.23
2018-04-01T05:20:19.811Z,13.40
2018-04-01T05:22:46.870Z,12.50
2018-04-01T05:25:13.950Z,11.07
2018-04-01T05:27:41.014Z,10.67
2018-04-01T05:30:08.104Z,11.03
2018-04-01T05:32:35.155Z,11.07
2018-04-01T05:35:02.206Z,11.17
2018-04-01T05:37:29.287Z,11.93
2018-04-01T05:39:56.354Z,13.10
2018-04-01T05:42:23.411Z,10.57
2018-04-01T05:44:50.536Z,11.43
2018-04-01T05:47:17.578Z,9.70
2018-04-01T05:49:44.679Z,10.17
2018-04-01T05:52:11.766Z,11.67
2018-04-01T05:54:38.886Z,15.03
2018-04-01T05:57:06.045Z,11.73
2018-04-01T05:59:33.143Z,11.07
2018-04-01T06:02:00.195Z,11.20
2018-04-01T06:04:27.294Z,12.07
2018-04-01T06:06:54.362Z,9.90
2018-04-01T06:09:21.542Z,9.87
2018-04-01T06:11:48.694Z,10.83
2018-04-01T06:14:15.746Z,11.03
2018-04-01T06:16:42.831Z,9.20
2018-04-01T06:19:09.888Z,9.47
2018-04-01T06:21:36.974Z,9.00
2018-04-01T06:24:04.087Z,9.20
2018-04-01T06:26:31.146Z,8.47
2018-04-01T06:28:58.208Z,7.60
2018-04-01T06:31:25.315Z,4.03
2018-04-01T06:33:52.362Z,2.77
2018-04-01T06:36:19.451Z,1.80
2018-04-01T06:38:46.542Z,2.17
2018-04-01T06:41:13.587Z,1.00
2018-04-01T06:43:40.639Z,0.90
2018-04-01T06:46:07.755Z,1.10
2018-04-01T06:48:34.806Z,1.10
2018-04-01T06:51:01.851Z,0.90
2018-04-01T06:53:29.078Z,1.10
2018-04-01T06:55:56.159Z,0.90
2018-04-01T06:58:23.220Z,1.00
2018-04-01T07:00:50.296Z,1.17
2018-04-01T07:03:17.330Z,1.50
2018-04-01T07:05:44.382Z,1.17
2018-04-01T07:08:11.463Z,1.10
2018-04-01T07:10:38.507Z,1.20
2018-04-01T07:13:05.550Z,1.20
2018-04-01T07:15:32.643Z,1.40
2018-04-01T07:17:59.714Z,1.10
2018-04-01T07:20:26.843Z,1.07
2018-04-01T07:22:53.887Z,1.20
2018-04-01T07:25:20.930Z,1.40
2018-04-01T07:27:48.019Z,1.70
2018-04-01T07:30:15.067Z,1.47
2018-04-01T07:32:42.113Z,1.27
2018-04-01T07:35:09.207Z,1.10
2018-04-01T07:37:36.255Z,1.27
2018-04-01T07:40:03.303Z,1.07
2018-04-01T07:42:30.364Z,1.33
2018-04-01T07:44:57.420Z,1.00
2018-04-01T07:47:24.503Z,2.00
2018-04-01T07:49:51.571Z,1.50
2018-04-01T07:52:18.623Z,3.73
2018-04-01T07:54:45.683Z,2.10
2018-04-01T07:57:12.735Z,2.03
2018-04-01T07:59:39.814Z,2.40
2018-04-01T08:02:06.863Z,2.30
2018-04-01T08:04:33.918Z,8.70
2018-04-01T08:07:01.010Z,4.30
2018-04-01T08:09:28.059Z,5.47
2018-04-01T08:11:55.139Z,5.93
2018-04-01T08:14:22.187Z,5.40
2018-04-01T08:16:49.240Z,4.10
2018-04-01T08:19:16.347Z,5.77
2018-04-01T08:21:43.415Z,5.27
2018-04-01T08:24:10.457Z,3.10
2018-04-01T08:26:37.610Z,2.77
2018-04-01T08:29:04.665Z,2.40
2018-04-01T08:31:31.722Z,1.80
2018-04-01T08:33:58.808Z,1.80
2018-04-01T08:36:25.871Z,1.40
2018-04-01T08:38:52.930Z,1.70
2018-04-01T08:41:20.012Z,1.90
2018-04-01T08:43:47.091Z,1.37
2018-04-01T08:46:14.143Z,1.80
2018-04-01T08:48:41.191Z,2.03
2018-04-01T08:51:08.343Z,2.17
2018-04-01T08:53:35.433Z,1.70
2018-04-01T08:56:02.478Z,1.60
2018-04-01T08:58:29.588Z,1.70
2018-04-01T09:00:56.648Z,1.73
2018-04-01T09:03:23.731Z,1.73
2018-04-01T09:05:50.778Z,1.80
2018-04-01T09:08:17.825Z,2.10
2018-04-01T09:10:44.898Z,1.63
2018-04-01T09:13:11.942Z,1.80
2018-04-01T09:15:39.015Z,2.10
2018-04-01T09:18:06.099Z,2.23
2018-04-01T09:20:33.149Z,2.60
2018-04-01T09:23:00.191Z,2.27
2018-04-01T09:25:27.297Z,2.07
2018-04-01T09:27:54.392Z,2.90
2018-04-01T09:30:21.460Z,3.10
2018-04-01T09:32:48.606Z,4.70
2018-04-01T09:35:15.699Z,1.63
2018-04-01T09:37:42.767Z,2.40
2018-04-01T09:40:09.858Z,2.23
2018-04-01T09:42:36.906Z,2.37
2018-04-01T09:45:04.008Z,2.30
2018-04-01T09:47:31.064Z,1.60
2018-04-01T09:49:58.122Z,1.57
2018-04-01T09:52:25.237Z,1.97
2018-04-01T09:54:52.312Z,2.27
2018-04-01T09:57:19.366Z,2.00
2018-04-01T09:59:46.443Z,1.73
2018-04-01T10:02:14.122Z,4.50
2018-04-01T10:04:41.715Z,2.70
2018-04-01T10:07:09.355Z,3.63
2018-04-01T10:09:36.955Z,4.67
2018-04-01T10:12:04.539Z,3.47
2018-04-01T10:14:32.174Z,2.60
2018-04-01T10:16:59.760Z,2.50
2018-04-01T10:19:27.382Z,3.00
2018-04-01T10:21:54.968Z,3.17
2018-04-01T10:24:22.578Z,2.30
2018-04-01T10:26:50.199Z,1.80
2018-04-01T10:29:17.789Z,2.40
2018-04-01T10:31:45.383Z,2.90
2018-04-01T10:34:12.971Z,2.80
2018-04-01T10:36:40.570Z,3.10
2018-04-01T10:39:08.203Z,2.50
2018-04-01T10:41:35.790Z,1.87
2018-04-01T10:44:03.410Z,1.00
2018-04-01T10:46:31.090Z,3.73
2018-04-01T10:48:58.672Z,3.70
2018-04-01T10:51:26.574Z,2.60
2018-04-01T10:53:56.571Z,2.10
2018-04-01T10:56:23.638Z,2.10
2018-04-01T10:58:50.731Z,3.27
2018-04-01T11:01:17.783Z,8.57
2018-04-01T11:03:44.827Z,3.90
2018-04-01T11:06:11.910Z,2.20
2018-04-01T11:08:38.962Z,2.13
2018-04-01T11:11:06.011Z,1.60
2018-04-01T11:13:33.058Z,1.70
2018-04-01T11:16:00.119Z,1.83
2018-04-01T11:18:27.246Z,1.60
2018-04-01T11:20:54.295Z,1.60
2018-04-01T11:23:21.356Z,1.80
2018-04-01T11:25:48.434Z,2.63
2018-04-01T11:28:15.475Z,1.37
2018-04-01T11:30:42.843Z,1.30
2018-04-01T11:33:09.891Z,1.70
2018-04-01T11:35:36.935Z,1.63
2018-04-01T11:38:04.043Z,2.00
2018-04-01T11:40:31.079Z,2.03
2018-04-01T11:42:58.114Z,1.40
2018-04-01T11:45:25.204Z,1.40
2018-04-01T11:47:52.243Z,1.20
2018-04-01T11:50:19.283Z,2.17
2018-04-01T11:52:46.394Z,1.83
2018-04-01T11:55:13.487Z,2.23
2018-04-01T11:57:40.527Z,1.60
2018-04-01T12:00:07.624Z,1.80
2018-04-01T12:02:34.699Z,4.50
2018-04-01T12:05:01.781Z,1.30
2018-04-01T12:07:28.843Z,1.90
2018-04-01T12:09:55.895Z,1.23
2018-04-01T12:12:22.946Z,1.60
2018-04-01T12:14:50.027Z,1.10
2018-04-01T12:17:17.126Z,2.00
2018-04-01T12:19:44.218Z,1.70
2018-04-01T12:22:11.790Z,1.53
2018-04-01T12:24:38.858Z,1.47
2018-04-01T12:27:05.902Z,1.10
2018-04-01T12:29:32.979Z,1.47
2018-04-01T12:32:00.051Z,0.70
2018-04-01T12:34:27.142Z,1.10
2018-04-01T12:36:54.193Z,1.43
2018-04-01T12:39:21.240Z,1.70
2018-04-01T12:41:48.375Z,1.07
2018-04-01T12:44:15.438Z,1.00
2018-04-01T12:46:42.487Z,1.30
2018-04-01T12:49:09.538Z,2.50
2018-04-01T12:51:36.599Z,2.63
2018-04-01T12:54:03.696Z,1.10
2018-04-01T12:56:30.753Z,0.97
2018-04-01T12:58:57.807Z,1.17
2018-04-01T13:01:24.863Z,1.20
2018-04-01T13:03:51.935Z,1.20
2018-04-01T13:06:19.025Z,1.50
2018-04-01T13:08:46.068Z,1.40
2018-04-01T13:11:13.120Z,1.00
2018-04-01T13:13:40.190Z,1.13
2018-04-01T13:16:07.265Z,1.70
2018-04-01T13:18:34.346Z,1.40
2018-04-01T13:21:03.148Z,0.97
2018-04-01T13:23:30.218Z,1.13
2018-04-01T13:25:57.330Z,1.17
2018-04-01T13:28:24.374Z,1.20
2018-04-01T13:30:51.430Z,1.00
2018-04-01T13:33:18.529Z,1.20
2018-04-01T13:35:45.625Z,1.30
2018-04-01T13:38:12.703Z,1.30
2018-04-01T13:40:39.782Z,1.20
2018-04-01T13:43:06.831Z,1.30
2018-04-01T13:45:33.900Z,1.20
2018-04-01T13:48:01.008Z,2.00
2018-04-01T13:50:28.123Z,1.83
2018-04-01T13:52:55.169Z,1.73
2018-04-01T13:55:22.254Z,1.27
2018-04-01T13:57:50.243Z,1.20
2018-04-01T14:00:17.294Z,1.10
2018-04-01T14:02:44.431Z,1.57
2018-04-01T14:05:12.006Z,1.30
2018-04-01T14:07:39.052Z,1.40
2018-04-01T14:10:06.152Z,1.50
2018-04-01T14:12:33.204Z,1.07
2018-04-01T14:15:00.291Z,1.50
2018-04-01T14:17:27.368Z,1.23
2018-04-01T14:19:54.435Z,2.03
2018-04-01T14:22:21.535Z,1.73
2018-04-01T14:24:48.591Z,1.70
2018-04-01T14:27:15.632Z,2.37
2018-04-01T14:29:42.727Z,2.00
2018-04-01T14:32:09.819Z,1.80
2018-04-01T14:34:36.869Z,1.77
2018-04-01T14:37:03.965Z,2.83
2018-04-01T14:39:31.043Z,1.07
2018-04-01T14:41:58.103Z,1.20
2018-04-01T14:44:25.158Z,1.30
2018-04-01T14:46:52.226Z,1.00
2018-04-01T14:49:19.319Z,1.37
2018-04-01T14:51:48.960Z,1.43
2018-04-01T14:54:16.003Z,1.20
2018-04-01T14:56:43.384Z,1.67
2018-04-01T14:59:10.445Z,1.00
2018-04-01T15:01:37.496Z,1.40
2018-04-01T15:04:04.591Z,1.57
2018-04-01T15:06:31.661Z,1.20
2018-04-01T15:08:58.720Z,1.77
2018-04-01T15:11:25.774Z,1.43
2018-04-01T15:13:52.830Z,1.07
2018-04-01T15:16:19.975Z,1.10
2018-04-01T15:18:47.022Z,1.40
2018-04-01T15:21:14.110Z,2.50
2018-04-01T15:23:41.208Z,2.00
2018-04-01T15:26:08.260Z,1.57
2018-04-01T15:28:35.323Z,2.03
2018-04-01T15:31:05.474Z,1.50
2018-04-01T15:33:32.657Z,1.53
2018-04-01T15:35:59.731Z,1.67
2018-04-01T15:38:26.811Z,1.80
2018-04-01T15:40:53.939Z,1.53
2018-04-01T15:43:21.036Z,1.37
2018-04-01T15:45:48.119Z,1.03
2018-04-01T15:48:15.172Z,0.90
2018-04-01T15:50:42.293Z,1.60
2018-04-01T15:53:09.413Z,6.60
2018-04-01T15:55:36.474Z,2.63
2018-04-01T15:58:03.564Z,3.40
2018-04-01T16:00:30.611Z,2.73
2018-04-01T16:02:57.687Z,2.47
2018-04-01T16:05:24.782Z,3.67
2018-04-01T16:07:51.831Z,5.70
2018-04-01T16:10:18.929Z,3.30
2018-04-01T16:12:46.013Z,3.40
2018-04-01T16:15:13.060Z,4.77
2018-04-01T16:17:40.115Z,5.17
2018-04-01T16:20:07.219Z,2.20
2018-04-01T16:22:34.346Z,1.90
2018-04-01T16:25:01.403Z,2.03
2018-04-01T16:27:28.462Z,2.50
2018-04-01T16:29:55.555Z,2.23
2018-04-01T16:32:22.699Z,3.70
2018-04-01T16:34:49.753Z,2.23
2018-04-01T16:37:16.807Z,1.67
2018-04-01T16:39:43.899Z,2.10
2018-04-01T16:42:11.386Z,2.20
2018-04-01T16:44:38.663Z,2.73
2018-04-01T16:47:05.763Z,3.97
2018-04-01T16:49:32.859Z,4.67
2018-04-01T16:51:59.967Z,3.33
2018-04-01T16:54:27.111Z,2.30
2018-04-01T16:56:54.166Z,3.00
2018-04-01T16:59:21.231Z,2.13
2018-04-01T17:01:48.315Z,2.70
2018-04-01T17:04:15.376Z,3.57
2018-04-01T17:06:42.502Z,4.70
2018-04-01T17:09:09.562Z,4.60
2018-04-01T17:11:36.643Z,4.63
2018-04-01T17:14:03.745Z,2.93
2018-04-01T17:16:30.938Z,1.77
2018-04-01T17:18:58.025Z,2.87
2018-04-01T17:21:25.163Z,3.67
2018-04-01T17:23:52.197Z,4.00
2018-04-01T17:26:19.375Z,3.50
2018-04-01T17:28:46.431Z,3.63
2018-04-01T17:31:13.523Z,3.70
2018-04-01T17:33:40.664Z,2.97
2018-04-01T17:36:07.727Z,4.37
2018-04-01T17:38:34.788Z,3.43
2018-04-01T17:41:02.783Z,3.87
2018-04-01T17:43:29.837Z,2.33
2018-04-01T17:45:56.898Z,4.50
2018-04-01T17:48:23.981Z,3.63
2018-04-01T17:50:51.031Z,3.43
2018-04-01T17:53:18.132Z,3.30
2018-04-01T17:55:45.251Z,4.37
2018-04-01T17:58:12.372Z,10.60
2018-04-01T18:00:39.490Z,15.03
2018-04-01T18:03:06.548Z,9.63
2018-04-01T18:05:33.607Z,10.57
2018-04-01T18:08:00.754Z,23.30
2018-04-01T18:10:27.806Z,14.70
2018-04-01T18:12:54.971Z,18.77
2018-04-01T18:15:22.042Z,18.43
2018-04-01T18:17:49.104Z,7.00
2018-04-01T18:20:16.155Z,8.53
2018-04-01T18:22:43.223Z,9.67
2018-04-01T18:25:10.431Z,6.63
2018-04-01T18:27:37.482Z,8.77
2018-04-01T18:30:04.570Z,9.10
2018-04-01T18:32:31.692Z,5.77
2018-04-01T18:34:58.774Z,15.67
2018-04-01T18:37:25.944Z,7.97
2018-04-01T18:39:53.038Z,5.33
2018-04-01T18:42:20.121Z,4.77
2018-04-01T18:44:47.175Z,5.80
2018-04-01T18:47:14.218Z,3.90
2018-04-01T18:49:41.271Z,4.67
2018-04-01T18:52:08.350Z,3.37
2018-04-01T18:54:35.407Z,4.97
2018-04-01T18:57:02.512Z,4.03
2018-04-01T18:59:29.603Z,2.67
2018-04-01T19:01:56.655Z,3.20
2018-04-01T19:04:23.711Z,3.10
2018-04-01T19:06:50.810Z,5.40
2018-04-01T19:09:17.867Z,3.30
2018-04-01T19:11:44.910Z,4.67
2018-04-01T19:14:11.961Z,4.00
2018-04-01T19:16:51.348Z,6.47
2018-04-01T19:19:18.963Z,3.87
2018-04-01T19:21:46.563Z,5.23
2018-04-01T19:24:14.140Z,4.53
2018-04-01T19:26:41.776Z,4.10
2018-04-01T19:29:09.394Z,23.67
2018-04-01T19:31:37.004Z,4.47
2018-04-01T19:34:04.626Z,3.80
2018-04-01T19:36:32.215Z,3.43
2018-04-01T19:38:59.802Z,2.83
2018-04-01T19:41:27.434Z,3.03
2018-04-01T19:43:55.015Z,3.30
2018-04-01T19:46:22.611Z,4.23
2018-04-01T19:48:50.758Z,3.63
2018-04-01T19:51:18.342Z,3.30
2018-04-01T19:53:45.942Z,3.80
2018-04-01T19:56:13.527Z,2.67
2018-04-01T19:58:41.112Z,3.70
2018-04-01T20:01:08.731Z,5.17
2018-04-01T20:03:36.406Z,9.53
2018-04-01T20:06:04.002Z,5.07
2018-04-01T20:08:31.736Z,3.73
2018-04-01T20:10:59.442Z,2.50
2018-04-01T20:13:27.051Z,2.80
2018-04-01T20:15:54.662Z,2.70
2018-04-01T20:18:22.266Z,2.60
2018-04-01T20:20:49.867Z,2.23
2018-04-01T20:23:17.492Z,1.83
2018-04-01T20:25:45.071Z,2.00
2018-04-01T20:28:12.661Z,2.03
2018-04-01T20:30:40.263Z,1.20
2018-04-01T20:33:07.852Z,1.50
2018-04-01T20:35:35.483Z,1.60
2018-04-01T20:38:03.070Z,1.30
2018-04-01T20:40:30.678Z,1.10
2018-04-01T20:42:58.307Z,1.50
2018-04-01T20:45:25.894Z,1.50
2018-04-01T20:47:53.485Z,1.47
2018-04-01T20:50:21.175Z,1.80
2018-04-01T20:52:48.791Z,2.20
2018-04-01T20:55:16.391Z,2.03
2018-04-01T20:57:43.979Z,1.90
2018-04-01T21:00:11.608Z,1.47
2018-04-01T21:02:39.247Z,1.60
2018-04-01T21:05:06.836Z,1.57
2018-04-01T21:07:34.455Z,1.60
2018-04-01T21:10:02.083Z,1.30
2018-04-01T21:12:29.704Z,1.60
2018-04-01T21:14:57.305Z,1.70
2018-04-01T21:17:24.930Z,1.50
2018-04-01T21:19:52.506Z,2.10
2018-04-01T21:22:20.083Z,1.83
2018-04-01T21:24:47.689Z,2.40
2018-04-01T21:27:15.283Z,2.50
2018-04-01T21:29:42.896Z,2.30
2018-04-01T21:32:10.517Z,2.30
2018-04-01T21:34:38.096Z,2.53
2018-04-01T21:37:05.805Z,2.20
2018-04-01T21:39:33.417Z,2.03
2018-04-01T21:42:01.003Z,2.73
2018-04-01T21:44:28.787Z,3.00
2018-04-01T21:46:56.372Z,2.87
2018-04-01T21:49:23.970Z,2.80
2018-04-01T21:51:51.602Z,3.20
2018-04-01T21:54:19.270Z,3.53
2018-04-01T21:56:46.863Z,3.30
2018-04-01T21:59:14.527Z,3.70
2018-04-01T22:01:42.153Z,3.43
2018-04-01T22:04:09.778Z,3.30
2018-04-01T22:06:37.370Z,3.60
2018-04-01T22:09:05.819Z,3.17
2018-04-01T22:11:33.403Z,3.33
2018-04-01T22:14:01.039Z,3.30
2018-04-01T22:16:28.631Z,3.57
2018-04-01T22:18:56.228Z,3.27
2018-04-01T22:21:23.868Z,3.20
2018-04-01T22:23:51.455Z,3.33
2018-04-01T22:26:19.094Z,3.47
2018-04-01T22:28:46.721Z,3.77
2018-04-01T22:31:14.347Z,3.80
2018-04-01T22:33:41.947Z,4.00
2018-04-01T22:36:09.599Z,4.13
2018-04-01T22:38:37.235Z,4.17
2018-04-01T22:41:04.863Z,4.60
2018-04-01T22:43:32.514Z,4.43
2018-04-01T22:46:00.242Z,4.43
2018-04-01T22:48:27.838Z,4.43
2018-04-01T22:50:55.428Z,4.70
2018-04-01T22:53:23.019Z,4.80
2018-04-01T22:55:50.648Z,5.20
2018-04-01T22:58:18.310Z,4.73
2018-04-01T23:00:45.957Z,4.67
2018-04-01T23:03:13.607Z,5.20
2018-04-01T23:05:41.500Z,5.53
2018-04-01T23:08:09.143Z,4.87
2018-04-01T23:10:36.787Z,4.80
2018-04-01T23:13:04.391Z,5.27
2018-04-01T23:15:31.979Z,4.80
2018-04-01T23:17:59.627Z,7.50
2018-04-01T23:20:27.239Z,5.20
2018-04-01T23:22:54.838Z,5.67
2018-04-01T23:25:22.442Z,5.57
2018-04-01T23:27:50.053Z,5.20
2018-04-01T23:30:17.647Z,5.40
2018-04-01T23:32:45.230Z,5.17
2018-04-01T23:35:12.846Z,4.60
2018-04-01T23:37:40.419Z,4.87
2018-04-01T23:40:07.995Z,4.27
2018-04-01T23:42:35.628Z,4.90
2018-04-01T23:45:03.215Z,4.67
2018-04-01T23:47:30.798Z,4.13
2018-04-01T23:49:58.461Z,4.20
2018-04-01T23:52:26.034Z,3.90
2018-04-01T23:54:53.706Z,3.70
2018-04-01T23:57:21.331Z,3.73
2018-04-01T23:59:48.912Z,3.83
